Latest Weather Observations for Pound Creek

IDV60801

Issued at 1:32 pm EDT Tuesday 21 February 2017 (issued every 30 minutes, with the page automatically refreshed every 10 minutes)

About weather observations | Map of weather stations | Latest weather observations for VIC | Other Formats
Station Details ID: 085099 Name: POUND CREEK Lat: -38.63 Lon: 145.81 Height: 3.0 m
Data from the previous 72 hours. | See also: Recent months at Pound Creek
Date/Time
EDT
Temp
°C
App
Temp
°C
Dew
Point
°C
Rel
Hum
%
Delta-T
°C
Wind Press
QNH
hPa
Press
MSL
hPa
Rain since
9am
mm
Dir  Spd
km/h
Gust
km/h
Spd
kts
Gust
kts
21/01:30pm 19.4 16.7 11.7 61 4.2 SW 17 22 9 12 1020.6 1020.6 0.0
21/01:00pm 19.5 17.1 11.5 60 4.4 SW 15 20 8 11 1020.9 1020.9 0.0
21/12:30pm 18.7 16.2 12.2 66 3.6 SW 17 22 9 12 1021.1 1021.1 0.0
21/12:00pm 18.5 16.8 12.3 67 3.4 SW 13 20 7 11 1021.0 1021.0 0.0
21/11:30am 18.4 17.2 11.7 65 3.7 WSW 9 17 5 9 1021.0 1021.0 0.0
21/11:00am 16.9 16.3 12.4 75 2.5 WNW 7 11 4 6 1021.4 1021.4 0.0
21/10:30am 16.3 14.9 12.3 77 2.2 NW 11 17 6 9 1021.4 1021.4 0.0
21/10:00am 16.4 15.2 12.8 79 2.0 NNW 11 17 6 9 1021.2 1021.2 0.0
21/09:30am 14.4 13.0 12.1 86 1.2 NNW 11 20 6 11 1021.0 1021.0 0.0
21/09:00am 13.5 11.9 11.6 88 1.0 NNW 11 17 6 9 1020.8 1020.8 3.2
21/08:30am 13.6 12.0 11.7 88 1.0 NNW 11 17 6 9 1020.5 1020.5 3.2
21/08:00am 13.6 12.4 11.5 87 1.1 NNW 9 15 5 8 1020.0 1020.0 3.2
21/07:30am 13.8 13.2 11.8 88 1.1 NNW 6 9 3 5 1019.7 1019.7 3.2
21/07:00am 13.7 13.1 11.6 87 1.1 WNW 6 9 3 5 1019.2 1019.2 3.2
21/06:30am 13.4 12.5 11.3 87 1.1 NW 7 9 4 5 1018.6 1018.6 3.2
21/06:00am 13.7 12.8 11.4 86 1.2 NW 7 11 4 6 1018.1 1018.1 3.2
21/05:30am 13.8 12.1 11.3 85 1.3 WNW 11 17 6 9 1018.0 1018.0 3.2
21/05:00am 13.5 12.7 11.2 86 1.2 NW 6 9 3 5 1018.0 1018.0 3.2
21/04:30am 13.7 12.8 11.2 85 1.3 WNW 7 11 4 6 1017.8 1017.8 3.2
21/04:00am 13.5 12.6 11.4 87 1.1 NW 7 11 4 6 1017.6 1017.6 3.2
21/03:30am 13.5 12.6 11.4 87 1.1 NW 7 11 4 6 1017.6 1017.6 3.2
21/03:00am 13.1 11.7 11.0 87 1.1 NNW 9 13 5 7 1017.4 1017.4 3.2
21/02:30am 13.0 11.9 10.5 85 1.3 NNW 7 9 4 5 1017.3 1017.3 3.2
21/02:00am 13.8 12.6 10.4 80 1.8 WNW 7 13 4 7 1017.3 1017.3 3.2
21/01:30am 14.0 11.6 10.2 78 2.0 WNW 13 19 7 10 1017.4 1017.4 3.2
21/01:00am 13.9 12.1 10.7 81 1.7 WNW 11 15 6 8 1017.5 1017.5 3.2
21/12:30am 14.4 11.8 10.6 78 2.0 W 15 22 8 12 1017.4 1017.4 3.2
21/12:00am 14.7 10.9 11.1 79 1.9 W 22 32 12 17 1017.3 1017.3 3.2
 
Date/Time
EDT
Temp
°C
App
Temp
°C
Dew
Point
°C
Rel
Hum
%
Delta-T
°C
Wind Press
QNH
hPa
Press
MSL
hPa
Rain since
9am
mm
Dir  Spd
km/h
Gust
km/h
Spd
kts
Gust
kts
20/11:30pm 14.9 11.5 11.3 79 1.9 W 20 28 11 15 1017.2 1017.2 3.0
20/11:00pm 15.0 11.2 11.0 77 2.1 W 22 32 12 17 1016.9 1016.9 3.0
20/10:30pm 15.1 10.6 11.5 79 1.9 WSW 26 43 14 23 1016.9 1016.9 3.0
20/10:00pm 15.8 10.6 10.3 70 2.9 WSW 28 35 15 19 1016.6 1016.6 3.0
20/09:30pm 15.6 10.8 10.2 70 2.8 WSW 26 37 14 20 1016.4 1016.4 3.0
20/09:00pm 15.4 11.1 10.6 73 2.5 WSW 24 37 13 20 1015.9 1015.9 3.0
20/08:30pm 14.5 11.2 11.5 82 1.6 W 20 30 11 16 1015.4 1015.4 3.0
20/08:00pm 14.9 10.6 10.7 76 2.2 W 24 37 13 20 1015.0 1015.0 3.0
20/07:30pm 15.9 10.8 10.7 71 2.8 WSW 28 48 15 26 1014.7 1014.7 3.0
20/07:00pm 16.5 10.8 11.0 70 2.9 W 32 43 17 23 1014.3 1014.3 3.0
20/06:30pm 16.3 10.2 10.6 69 3.0 WSW 33 48 18 26 1013.9 1013.9 3.0
20/06:00pm 17.1 10.6 10.5 65 3.5 WSW 35 43 19 23 1013.5 1013.5 3.0
20/05:30pm 17.7 10.9 10.8 64 3.7 WSW 37 46 20 25 1013.2 1013.2 3.0
20/05:00pm 17.3 10.4 10.2 63 3.8 WSW 37 50 20 27 1012.8 1012.8 3.0
20/04:30pm 18.2 11.8 9.5 57 4.6 WSW 33 46 18 25 1012.6 1012.6 3.0
20/04:00pm 16.5 9.9 10.1 66 3.4 WSW 35 46 19 25 1012.4 1012.4 3.0
20/03:30pm 17.6 12.4 11.6 68 3.3 WSW 30 39 16 21 1012.2 1012.2 3.0
20/03:00pm 17.3 11.3 10.7 65 3.5 WSW 33 43 18 23 1012.2 1012.2 3.0
20/02:30pm 16.9 10.5 10.7 67 3.3 WSW 35 50 19 27 1012.0 1012.0 3.0
20/02:00pm 17.5 11.3 11.3 67 3.4 WSW 35 46 19 25 1011.8 1011.8 3.0
20/01:30pm 16.7 12.5 12.3 75 2.4 SW 26 41 14 22 1011.8 1011.8 3.0
20/01:00pm 16.9 12.1 11.6 71 2.9 SW 28 37 15 20 1011.7 1011.7 3.0
20/12:30pm 16.2 11.1 12.0 76 2.3 WSW 30 44 16 24 1011.6 1011.6 3.0
20/12:00pm 12.9 7.7 10.1 83 1.4 SW 28 41 15 22 1011.6 1011.6 3.0
20/11:51am 13.7 8.6 10.7 82 1.6 SW 28 48 15 26 1011.7 1011.7 1.6
20/11:30am 15.6 11.7 12.0 79 2.0 SW 24 37 13 20 1011.4 1011.4 0.8
20/11:00am 16.6 10.4 10.2 66 3.4 WSW 33 46 18 25 1011.1 1011.1 0.8
20/10:30am 14.7 10.7 11.8 83 1.6 WSW 24 37 13 20 1011.2 1011.2 0.8
20/10:18am 15.4 9.9 10.4 72 2.6 WSW 30 48 16 26 1011.1 1011.1 0.6
20/10:00am 13.4 9.7 10.0 80 1.8 W 20 30 11 16 1010.9 1010.9 0.4
20/09:30am 15.0 10.4 9.8 71 2.7 WSW 24 35 13 19 1010.4 1010.4 0.0
20/09:00am 14.2 10.3 9.4 73 2.5 WSW 20 33 11 18 1010.2 1010.2 21.8
20/08:30am 12.3 10.0 9.1 81 1.6 W 11 19 6 10 1010.0 1010.0 21.8
20/08:00am 12.5 7.4 9.1 80 1.7 WSW 26 37 14 20 1009.6 1009.6 21.6
20/07:48am 13.5 7.9 8.6 72 2.5 WSW 28 39 15 21 1009.4 1009.4 21.4
20/07:30am 13.1 10.5 9.2 77 2.0 WSW 13 19 7 10 1009.1 1009.1 21.4
20/07:00am 13.4 8.3 7.6 68 2.8 SW 24 35 13 19 1008.9 1008.9 21.4
20/06:30am 12.9 8.6 7.8 71 2.5 WSW 20 30 11 16 1008.5 1008.5 21.4
20/06:00am 12.5 8.1 9.0 79 1.8 SW 22 33 12 18 1008.3 1008.3 21.4
20/05:30am 13.1 9.1 9.0 76 2.1 WSW 20 32 11 17 1007.9 1007.9 21.4
20/05:00am 12.3 7.2 7.6 73 2.3 WSW 24 35 13 19 1007.8 1007.8 21.4
20/04:30am 12.4 8.6 9.1 80 1.7 WSW 19 24 10 13 1007.6 1007.6 21.4
20/04:00am 10.7 9.0 8.5 86 1.1 NW 7 11 4 6 1007.6 1007.6 20.8
20/03:30am 11.1 9.1 8.7 85 1.2 NW 9 15 5 8 1007.5 1007.5 20.6
20/03:00am 10.7 8.3 8.5 86 1.1 NNW 11 15 6 8 1007.5 1007.5 19.6
20/02:30am 10.6 8.9 8.5 87 1.0 NW 7 15 4 8 1007.6 1007.6 19.6
20/02:00am 10.5 8.0 8.4 87 1.0 NNW 11 19 6 10 1007.6 1007.6 19.4
20/01:30am 10.0 7.4 7.9 87 1.0 NNW 11 17 6 9 1008.0 1008.0 19.4
20/01:00am 10.4 8.2 8.0 85 1.2 WNW 9 13 5 7 1008.0 1008.0 19.2
20/12:30am 10.5 7.7 8.4 87 1.0 NNW 13 20 7 11 1008.0 1008.0 18.6
20/12:00am 9.9 7.7 7.8 87 1.0 NNW 9 15 5 8 1008.2 1008.2 18.6
 
Date/Time
EDT
Temp
°C
App
Temp
°C
Dew
Point
°C
Rel
Hum
%
Delta-T
°C
Wind Press
QNH
hPa
Press
MSL
hPa
Rain since
9am
mm
Dir  Spd
km/h
Gust
km/h
Spd
kts
Gust
kts
19/11:30pm 10.3 8.4 7.5 83 1.3 NNW 7 13 4 7 1008.5 1008.5 18.6
19/11:00pm 10.4 8.7 8.2 86 1.1 WNW 7 17 4 9 1008.6 1008.6 18.6
19/10:30pm 10.4 8.3 8.2 86 1.1 NW 9 15 5 8 1008.7 1008.7 18.0
19/10:00pm 10.4 8.6 7.8 84 1.3 NNW 7 13 4 7 1008.6 1008.6 18.0
19/09:30pm 10.5 7.1 7.7 83 1.3 W 15 22 8 12 1008.7 1008.7 18.0
19/09:00pm 10.7 9.1 7.9 83 1.4 NW 6 9 3 5 1008.1 1008.1 16.8
19/08:30pm 11.1 6.4 7.6 79 1.7 WSW 22 41 12 22 1008.1 1008.1 16.8
19/08:00pm 13.5 8.3 7.3 66 3.0 W 24 33 13 18 1007.6 1007.6 15.0
19/07:30pm 13.6 8.9 6.2 61 3.5 W 20 28 11 15 1007.2 1007.2 15.0
19/07:00pm 14.4 9.0 6.5 59 3.8 W 24 35 13 19 1006.8 1006.8 15.0
19/06:30pm 14.2 10.0 7.5 64 3.3 W 19 26 10 14 1006.8 1006.8 15.0
19/06:00pm 14.5 7.6 6.3 58 4.0 W 32 43 17 23 1006.9 1006.9 15.0
19/05:30pm 13.8 9.6 7.6 66 3.0 W 19 32 10 17 1006.7 1006.7 15.0
19/05:00pm 14.8 9.0 8.1 64 3.4 WSW 28 37 15 20 1006.6 1006.6 15.0
19/04:50pm 14.7 10.2 8.4 66 3.2 W 22 43 12 23 1006.5 1006.5 15.0
19/04:30pm 12.6 11.3 10.1 85 1.3 NW 7 13 4 7 1006.7 1006.7 15.0
19/04:00pm 11.4 7.6 9.1 86 1.2 W 19 30 10 16 1007.3 1007.3 14.4
19/03:30pm 10.3 7.8 8.2 87 1.0 WNW 11 17 6 9 1007.5 1007.5 12.6
19/03:00pm 10.8 7.2 8.4 85 1.2 NNW 17 30 9 16 1006.9 1006.9 10.2
19/02:30pm 11.0 9.4 8.9 87 1.0 NW 7 11 4 6 1007.4 1007.4 9.6
19/02:02pm 11.0 5.2 8.1 82 1.4 W 28 48 15 26 1007.4 1007.4 8.2
19/02:00pm 11.0 4.8 7.9 81 1.5 WSW 30 48 16 26 1007.3 1007.3 8.2
19/01:30pm 13.5 7.0 6.6 63 3.3 WSW 30 50 16 27 1007.4 1007.4 6.8
19/01:00pm 16.4 12.8 10.0 66 3.4 NW 19 32 10 17 1007.2 1007.2 6.8
19/12:30pm 15.1 11.8 9.7 70 2.8 NW 17 33 9 18 1007.6 1007.6 6.8
19/12:00pm 14.6 11.8 11.2 80 1.8 NW 17 28 9 15 1008.2 1008.2 6.8
19/11:30am 12.2 9.6 10.8 91 0.7 NW 15 24 8 13 1008.4 1008.4 6.8
19/11:00am 11.0 8.9 9.8 92 0.6 NW 11 19 6 10 1008.7 1008.7 6.8
19/10:30am 11.4 9.4 10.1 92 0.7 WNW 11 20 6 11 1008.9 1008.9 5.8
19/10:00am 11.7 9.8 10.6 93 0.6 WNW 11 19 6 10 1008.7 1008.7 4.6
19/09:30am 10.8 9.0 9.6 92 0.6 NNW 9 19 5 10 1008.7 1008.7 3.4
19/09:00am 10.4 8.0 8.5 88 0.9 NW 11 24 6 13 1008.5 1008.5 6.0
19/08:30am 13.3 9.3 8.4 72 2.4 NNW 19 30 10 16 1007.9 1007.9 4.4
19/08:00am 12.1 8.4 7.8 75 2.1 NNW 17 32 9 17 1007.8 1007.8 4.4
19/07:30am 11.9 8.2 7.8 76 2.0 NNW 17 26 9 14 1007.7 1007.7 4.4
19/07:00am 11.4 7.6 7.7 78 1.8 NNW 17 26 9 14 1007.7 1007.7 4.4
19/06:30am 11.2 7.8 7.7 79 1.7 NNW 15 24 8 13 1007.6 1007.6 4.4
19/06:00am 12.0 8.8 8.3 78 1.8 NNW 15 24 8 13 1007.7 1007.7 4.4
19/05:30am 11.6 8.3 7.9 78 1.8 NW 15 26 8 14 1007.8 1007.8 4.4
19/05:00am 11.7 8.3 7.8 77 1.9 NW 15 24 8 13 1007.8 1007.8 4.4
19/04:30am 11.3 8.3 7.8 79 1.7 NW 13 28 7 15 1008.1 1008.1 4.4
19/04:00am 10.9 8.2 7.4 79 1.7 NNW 11 17 6 9 1008.4 1008.4 4.4
19/03:30am 11.2 8.2 7.5 78 1.8 NNW 13 20 7 11 1008.8 1008.8 4.4
19/03:00am 10.8 7.8 7.7 81 1.5 NW 13 19 7 10 1009.1 1009.1 4.4
19/02:30am 10.1 7.4 7.5 84 1.2 NNW 11 17 6 9 1009.5 1009.5 4.4
19/02:00am 10.7 8.7 8.5 86 1.1 NNW 9 15 5 8 1009.9 1009.9 4.4
19/01:30am 10.4 8.0 8.5 88 0.9 NNW 11 15 6 8 1010.1 1010.1 4.4
19/01:00am 10.6 8.3 9.0 90 0.8 NNW 11 13 6 7 1010.4 1010.4 4.4
19/12:30am 10.7 8.8 9.1 90 0.8 NNW 9 13 5 7 1010.4 1010.4 4.4
19/12:00am 11.0 9.1 9.1 88 0.9 NNW 9 13 5 7 1010.6 1010.6 4.4
 
Date/Time
EDT
Temp
°C
App
Temp
°C
Dew
Point
°C
Rel
Hum
%
Delta-T
°C
Wind Press
QNH
hPa
Press
MSL
hPa
Rain since
9am
mm
Dir  Spd
km/h
Gust
km/h
Spd
kts
Gust
kts
18/11:30pm 11.5 9.3 9.4 87 1.1 NNW 11 17 6 9 1010.8 1010.8 3.8
18/11:00pm 11.5 9.3 9.4 87 1.1 NNW 11 17 6 9 1010.8 1010.8 3.8
18/10:30pm 11.1 9.3 9.4 89 0.9 NNW 9 13 5 7 1011.1 1011.1 3.6
18/10:00pm 11.1 9.2 9.2 88 0.9 NNW 9 11 5 6 1011.3 1011.3 3.6
18/09:30pm 11.7 10.2 9.1 84 1.3 NW 7 13 4 7 1011.5 1011.5 3.2
18/09:00pm 14.1 8.9 7.2 63 3.4 WSW 24 33 13 18 1011.4 1011.4 2.6
18/08:30pm 14.5 11.2 6.6 59 3.8 W 13 19 7 10 1011.0 1011.0 2.6
18/08:00pm 14.7 10.7 6.5 58 4.0 W 17 30 9 16 1010.8 1010.8 2.6
18/07:30pm 15.8 11.3 6.8 55 4.4 WSW 20 28 11 15 1010.5 1010.5 2.6
18/07:00pm 15.4 10.6 5.6 52 4.7 W 20 28 11 15 1010.3 1010.3 2.6
18/06:30pm 16.2 10.7 6.1 51 4.9 WSW 24 33 13 18 1010.3 1010.3 2.6
18/06:00pm 17.4 12.7 6.0 47 5.6 WSW 20 32 11 17 1010.3 1010.3 2.6
18/05:30pm 16.8 12.1 6.0 49 5.2 WSW 20 28 11 15 1010.3 1010.3 2.6
18/05:00pm 17.3 11.6 6.8 50 5.2 WSW 26 32 14 17 1010.2 1010.2 2.6
18/04:30pm 16.5 12.5 8.2 58 4.2 SW 19 30 10 16 1010.2 1010.2 2.6
18/04:00pm 17.4 13.1 8.0 54 4.8 WSW 20 28 11 15 1010.5 1010.5 2.6
18/03:30pm 16.9 11.4 7.5 54 4.7 SW 26 39 14 21 1010.6 1010.6 2.6
18/03:00pm 17.3 13.7 8.2 55 4.6 WSW 17 22 9 12 1010.7 1010.7 2.6
18/02:30pm 16.5 11.6 8.5 59 4.1 WSW 24 35 13 19 1010.7 1010.7 2.6
18/02:14pm 14.8 9.4 8.1 64 3.4 WSW 26 39 14 21 1010.7 1010.7 2.6
18/02:00pm 16.0 12.7 8.0 59 4.0 W 15 19 8 10 1010.7 1010.7 2.6

Other Formats:

Comma delimited format used in spreadsheet applications
http://www.bom.gov.au/fwo/IDV60801/IDV60801.94886.axf

JavaScript Object Notation format (JSON) in row-major order
http://www.bom.gov.au/fwo/IDV60801/IDV60801.94886.json